Time;durP1;ratioP1;P1;durP2;ratioP2;P2;SDS_P1;SDS_P2;PMS_P1;PMS_P2;Temp;Humidity;BMP_temperature;BMP_pressure;BME280_temperature;BME280_humidity;BME280_pressure;Samples;Min_cycle;Max_cycle;Signal;HPM_P1;HPM_P2
2021/06/10 00:00:00;;;;;;;7.53;6.95;;;;;;;17.34;67.25;101777.16;5019251;28;20021;-74
2021/06/10 00:02:27;;;;;;;8.65;7.55;;;;;;;17.31;67.27;101776.38;5053815;28;20556;-74
2021/06/10 00:04:52;;;;;;;8.32;7.57;;;;;;;17.30;67.15;101778.16;5036597;28;20094;-75
2021/06/10 00:07:18;;;;;;;8.68;7.40;;;;;;;17.24;67.09;101775.66;5036468;28;20028;-75
2021/06/10 00:09:44;;;;;;;7.88;7.20;;;;;;;17.18;67.96;101776.69;5035522;28;20084;-74
2021/06/10 00:12:11;;;;;;;7.45;6.70;;;;;;;17.21;69.30;101770.47;5036233;28;20049;-75
2021/06/10 00:14:37;;;;;;;8.23;7.32;;;;;;;17.20;68.62;101774.00;5053283;28;20422;-75
2021/06/10 00:17:02;;;;;;;8.73;8.02;;;;;;;17.14;67.51;101768.88;5053612;28;20033;-75
2021/06/10 00:19:28;;;;;;;8.32;7.63;;;;;;;17.17;68.44;101772.31;5035291;28;20029;-76
2021/06/10 00:21:53;;;;;;;8.85;7.97;;;;;;;17.23;67.40;101771.28;5035184;28;20025;-75
2021/06/10 00:24:19;;;;;;;8.77;8.02;;;;;;;17.24;67.80;101765.09;5019135;28;20025;-75
2021/06/10 00:26:44;;;;;;;8.48;7.68;;;;;;;17.24;68.18;101765.09;5036054;28;20365;-75
2021/06/10 00:29:09;;;;;;;7.72;7.22;;;;;;;17.30;68.47;101766.69;5018783;28;20418;-75
2021/06/10 00:31:35;;;;;;;9.35;8.55;;;;;;;17.11;68.11;101758.41;5019170;28;20032;-75
2021/06/10 00:34:00;;;;;;;8.82;7.82;;;;;;;17.02;67.93;101762.19;5035842;28;20078;-75
2021/06/10 00:36:26;;;;;;;8.20;7.57;;;;;;;17.30;66.28;101754.38;5053128;28;20059;-75
2021/06/10 00:38:52;;;;;;;8.32;7.63;;;;;;;17.44;65.55;101755.75;5035344;28;20028;-74
2021/06/10 00:41:19;;;;;;;12.30;8.70;;;;;;;17.08;67.50;101754.06;5035650;28;20029;-75
2021/06/10 00:43:44;;;;;;;8.60;8.00;;;;;;;17.05;67.91;101746.25;5035832;28;20029;-75
2021/06/10 00:46:10;;;;;;;8.70;7.80;;;;;;;16.82;68.80;101758.22;5053045;28;20399;-75
2021/06/10 00:48:35;;;;;;;8.77;8.07;;;;;;;17.04;68.15;101750.66;5052760;28;20603;-74
2021/06/10 00:51:01;;;;;;;7.93;7.32;;;;;;;16.92;68.98;101748.34;5053013;28;20066;-76
2021/06/10 00:53:26;;;;;;;8.40;7.80;;;;;;;16.90;69.10;101744.88;5019125;28;20025;-74
2021/06/10 00:55:54;;;;;;;7.97;7.38;;;;;;;16.66;69.46;101746.34;5053300;28;20028;-75
2021/06/10 00:58:20;;;;;;;8.60;7.75;;;;;;;16.88;68.59;101741.41;5034953;28;20538;-74
2021/06/10 01:00:45;;;;;;;7.97;7.25;;;;;;;16.60;70.46;101739.44;5035484;28;20044;-75
2021/06/10 01:03:11;;;;;;;9.15;8.27;;;;;;;16.45;70.66;101742.47;5035468;28;20021;-76
2021/06/10 01:05:37;;;;;;;9.35;8.13;;;;;;;16.34;71.60;101738.31;5019034;28;20044;-75
2021/06/10 01:08:09;;;;;;;8.90;8.18;;;;;;;16.27;71.51;101739.34;5035374;28;20021;-75
2021/06/10 01:10:57;;;;;;;8.90;8.13;;;;;;;16.18;71.82;101744.84;5018518;28;20395;-75
2021/06/10 01:13:54;;;;;;;10.32;8.52;;;;;;;16.13;71.75;101736.16;5018878;28;20025;-75
2021/06/10 01:16:22;;;;;;;8.70;7.97;;;;;;;16.19;72.10;101736.03;5051858;28;20021;-75
2021/06/10 01:18:48;;;;;;;9.23;8.52;;;;;;;16.16;72.47;101741.38;5018225;28;20427;-75
2021/06/10 01:21:17;;;;;;;10.82;9.93;;;;;;;16.15;71.02;101734.38;5018847;28;20056;-75
2021/06/10 01:24:03;;;;;;;11.65;10.65;;;;;;;16.15;70.92;101734.38;5035278;28;20028;-76
2021/06/10 01:26:51;;;;;;;12.50;9.82;;;;;;;16.10;70.94;101734.50;5018916;28;20110;-75
2021/06/10 01:29:20;;;;;;;10.73;9.82;;;;;;;15.93;71.68;101734.00;5034541;28;20025;-74
2021/06/10 01:31:46;;;;;;;11.18;9.90;;;;;;;15.96;72.20;101734.78;5035548;28;20037;-74
2021/06/10 01:34:12;;;;;;;11.65;10.45;;;;;;;16.05;71.31;101733.72;5054184;28;20032;-75
2021/06/10 01:36:40;;;;;;;13.10;10.45;;;;;;;16.03;70.99;101728.50;5022631;28;20021;-75
2021/06/10 01:39:09;;;;;;;14.55;9.77;;;;;;;16.21;71.40;101726.31;5022129;28;20323;-75
2021/06/10 01:41:35;;;;;;;10.52;9.43;;;;;;;16.43;69.82;101728.44;5039152;28;20108;-75
2021/06/10 01:44:02;;;;;;;11.20;9.95;;;;;;;16.52;68.82;101722.94;5056480;28;20041;-75
2021/06/10 01:46:29;;;;;;;10.57;9.48;;;;;;;16.47;69.49;101727.47;5021802;28;20029;-75
2021/06/10 01:48:56;;;;;;;10.45;9.55;;;;;;;16.49;69.51;101721.25;5021561;28;20116;-76
2021/06/10 01:51:27;;;;;;;11.00;9.90;;;;;;;16.60;68.12;101715.69;5038564;28;20049;-75
2021/06/10 01:53:54;;;;;;;10.90;9.70;;;;;;;16.53;68.81;101712.34;5021818;28;20083;-75
2021/06/10 01:56:21;;;;;;;12.38;11.18;;;;;;;16.57;68.39;101710.50;5038455;28;20128;-75
2021/06/10 01:58:47;;;;;;;12.60;11.40;;;;;;;16.65;67.47;101713.81;5021482;28;20430;-75
2021/06/10 02:01:14;;;;;;;13.20;12.00;;;;;;;16.63;67.82;101712.97;5021655;28;20032;-75
2021/06/10 02:03:40;;;;;;;11.35;10.25;;;;;;;16.66;67.61;101710.28;5022125;28;20078;-76
2021/06/10 02:06:08;;;;;;;12.55;11.20;;;;;;;16.59;69.08;101711.31;5056013;28;20107;-75
2021/06/10 02:08:33;;;;;;;11.65;10.63;;;;;;;16.47;69.30;101717.78;5037988;28;20422;-76
2021/06/10 02:10:59;;;;;;;14.13;12.70;;;;;;;16.21;70.92;101713.13;5021527;28;20009;-76
2021/06/10 02:13:26;;;;;;;13.63;12.15;;;;;;;16.19;71.28;101707.03;5038045;28;20033;-76
2021/06/10 02:15:52;;;;;;;14.38;12.98;;;;;;;16.27;70.76;101701.59;5021615;28;20323;-75
2021/06/10 02:18:18;;;;;;;16.63;12.98;;;;;;;16.23;70.54;101711.34;5021065;28;20039;-72
2021/06/10 02:20:46;;;;;;;15.52;13.35;;;;;;;15.97;71.20;101702.25;5097889;22;20337;-78
2021/06/10 02:23:11;;;;;;;15.30;13.80;;;;;;;15.64;72.45;101688.06;5076318;28;20039;-78
2021/06/10 02:25:37;;;;;;;15.23;13.65;;;;;;;15.49;73.55;101707.69;5062163;28;20028;-78
2021/06/10 02:28:04;;;;;;;15.55;12.60;;;;;;;15.48;73.94;101696.25;5079321;28;20020;-79
2021/06/10 02:30:29;;;;;;;15.40;13.18;;;;;;;15.53;74.21;101709.34;5079428;28;20020;-78
2021/06/10 02:32:55;;;;;;;15.90;14.30;;;;;;;15.42;73.85;101701.66;5062622;28;20445;-78
2021/06/10 02:35:20;;;;;;;17.48;15.63;;;;;;;15.42;73.81;101696.41;5079407;28;20031;-77
2021/06/10 02:37:48;;;;;;;17.00;14.40;;;;;;;15.32;74.66;101694.84;5061957;28;20028;-78
2021/06/10 02:40:22;;;;;;;17.98;14.25;;;;;;;15.35;74.60;101693.03;5062201;28;20494;-79
2021/06/10 02:42:50;;;;;;;16.60;14.90;;;;;;;15.51;74.16;101704.09;5079064;28;20048;-78
2021/06/10 02:45:19;;;;;;;20.17;15.43;;;;;;;15.50;73.64;101688.31;5061643;28;20031;-78
2021/06/10 02:47:47;;;;;;;23.63;16.17;;;;;;;15.47;74.73;101693.66;5096677;28;20412;-77
2021/06/10 02:50:16;;;;;;;15.77;14.00;;;;;;;15.54;73.87;101695.25;5078546;28;20047;-78
2021/06/10 02:52:43;;;;;;;17.25;13.93;;;;;;;15.66;73.76;101688.88;5062083;28;20024;-77
2021/06/10 02:55:09;;;;;;;15.85;13.38;;;;;;;15.82;72.41;101684.19;5078795;28;20020;-78
2021/06/10 02:57:37;;;;;;;15.38;13.60;;;;;;;15.86;72.03;101688.47;5062056;28;20031;-78
2021/06/10 03:00:06;;;;;;;17.48;13.90;;;;;;;15.97;71.48;101693.50;5078596;28;20046;-77
2021/06/10 03:02:37;;;;;;;15.05;13.45;;;;;;;15.99;71.79;101694.31;5063267;28;20059;-77
2021/06/10 03:05:03;;;;;;;15.77;13.65;;;;;;;15.61;73.49;101691.63;5097587;28;20220;-78
2021/06/10 03:07:28;;;;;;;16.73;13.40;;;;;;;15.50;73.64;101694.47;5062219;28;20431;-78
2021/06/10 03:09:54;;;;;;;18.77;15.18;;;;;;;15.19;75.07;101689.81;5077907;28;20435;-78
2021/06/10 03:12:20;;;;;;;17.10;15.00;;;;;;;15.07;76.29;101689.22;5061591;28;20020;-77
2021/06/10 03:14:45;;;;;;;17.08;15.27;;;;;;;15.01;76.05;101701.56;5061618;28;20085;-78
2021/06/10 03:17:16;;;;;;;16.73;14.90;;;;;;;15.19;75.00;101699.50;5078259;28;20336;-78
2021/06/10 03:19:41;;;;;;;17.35;15.30;;;;;;;15.04;76.39;101693.63;5061046;28;20435;-78
2021/06/10 03:22:07;;;;;;;16.95;15.23;;;;;;;14.86;77.05;101701.84;5061527;28;20028;-77
2021/06/10 03:24:33;;;;;;;18.92;15.60;;;;;;;14.82;77.04;101694.91;5078258;28;20020;-77
2021/06/10 03:26:58;;;;;;;15.43;13.57;;;;;;;15.06;76.07;101700.63;5061377;28;20411;-78
2021/06/10 03:29:24;;;;;;;18.48;15.25;;;;;;;14.93;75.98;101698.22;5077650;28;20032;-78
2021/06/10 03:31:49;;;;;;;17.25;15.07;;;;;;;14.91;76.73;101693.88;5061311;28;20027;-77
2021/06/10 03:34:17;;;;;;;16.50;14.80;;;;;;;14.93;76.71;101692.06;5078067;28;20301;-78
2021/06/10 03:36:43;;;;;;;16.83;15.13;;;;;;;14.95;76.30;101699.03;5061589;28;20027;-78
2021/06/10 03:39:08;;;;;;;18.15;16.25;;;;;;;14.85;77.19;101695.72;5077773;28;20020;-77
2021/06/10 03:41:34;;;;;;;14.10;12.70;;;;;;;15.12;76.21;101697.84;5061326;28;20035;-78
2021/06/10 03:44:00;;;;;;;16.58;14.10;;;;;;;15.21;75.81;101695.06;5077873;28;20020;-78
2021/06/10 03:46:26;;;;;;;14.82;13.32;;;;;;;15.40;74.72;101703.44;5077693;28;20024;-78
2021/06/10 03:48:51;;;;;;;14.02;12.68;;;;;;;15.36;75.01;101700.00;5077578;28;20024;-77
2021/06/10 03:51:19;;;;;;;14.32;12.82;;;;;;;15.51;75.08;101690.06;5078024;28;20051;-78
2021/06/10 03:53:46;;;;;;;15.93;12.02;;;;;;;15.78;73.57;101691.25;5077914;28;20024;-78
2021/06/10 03:56:12;;;;;;;16.05;12.95;;;;;;;15.85;72.93;101690.22;5077567;28;20331;-78
2021/06/10 03:58:37;;;;;;;14.10;12.65;;;;;;;15.80;73.22;101691.22;5077644;28;20024;-78
2021/06/10 04:01:03;;;;;;;16.20;13.63;;;;;;;15.65;74.05;101692.41;5077607;28;20016;-78
2021/06/10 04:03:28;;;;;;;15.73;13.57;;;;;;;15.59;74.64;101697.81;5077703;28;20432;-78
2021/06/10 04:05:54;;;;;;;13.00;11.65;;;;;;;15.80;74.52;101688.59;5060779;28;20344;-77
2021/06/10 04:08:19;;;;;;;14.80;11.90;;;;;;;15.99;73.81;101696.94;5060495;28;20019;-77
2021/06/10 04:10:44;;;;;;;11.73;10.63;;;;;;;16.26;72.49;101695.44;5095131;28;20427;-77
2021/06/10 04:13:10;;;;;;;12.88;11.43;;;;;;;16.24;72.56;101692.00;5077401;28;20028;-77
2021/06/10 04:15:35;;;;;;;12.25;10.98;;;;;;;16.48;71.41;101693.13;5077250;28;20368;-78
2021/06/10 04:18:00;;;;;;;12.13;10.40;;;;;;;16.57;71.32;101694.69;5077168;28;20020;-78
2021/06/10 04:20:28;;;;;;;11.85;10.77;;;;;;;16.57;71.50;101694.69;5060264;28;20237;-77
2021/06/10 04:22:54;;;;;;;14.38;10.38;;;;;;;16.63;71.16;101694.50;5077469;28;20031;-78
2021/06/10 04:25:19;;;;;;;10.80;9.85;;;;;;;16.37;72.14;101698.69;5060430;28;20019;-78
2021/06/10 04:27:45;;;;;;;13.05;11.75;;;;;;;16.12;73.92;101703.69;5060535;28;20024;-78
2021/06/10 04:30:12;;;;;;;12.90;11.57;;;;;;;16.03;74.79;101703.88;5060016;28;20020;-77
2021/06/10 04:32:38;;;;;;;13.77;12.32;;;;;;;16.03;75.35;101699.50;5060513;28;20090;-78
2021/06/10 04:35:07;;;;;;;13.35;12.05;;;;;;;15.95;74.26;101701.44;5077281;28;20024;-78
2021/06/10 04:37:32;;;;;;;12.00;10.85;;;;;;;16.37;72.52;101697.81;5060342;28;20031;-78
2021/06/10 04:39:57;;;;;;;12.52;11.13;;;;;;;16.53;71.73;101695.66;5059930;28;20020;-78
2021/06/10 04:42:23;;;;;;;12.27;11.15;;;;;;;16.62;71.64;101698.09;5076900;28;20024;-78
2021/06/10 04:44:48;;;;;;;12.20;11.00;;;;;;;16.41;73.53;101698.63;5060275;28;20048;-77
2021/06/10 04:47:13;;;;;;;10.98;9.63;;;;;;;16.49;73.72;101701.94;5060032;28;20034;-78
2021/06/10 04:49:39;;;;;;;11.95;10.82;;;;;;;16.27;73.87;101707.72;5076552;28;20024;-78
2021/06/10 04:52:05;;;;;;;12.10;10.90;;;;;;;16.26;73.64;101713.88;5094790;28;20032;-79
2021/06/10 04:54:31;;;;;;;11.60;10.13;;;;;;;16.56;71.76;101714.03;5076870;28;20024;-78
2021/06/10 04:56:56;;;;;;;11.55;10.35;;;;;;;16.54;72.72;101711.44;5076917;28;20024;-78
2021/06/10 04:59:22;;;;;;;11.20;10.20;;;;;;;16.48;73.05;101718.66;5076572;28;20016;-78
2021/06/10 05:01:47;;;;;;;12.15;10.80;;;;;;;16.58;72.26;101712.25;5076778;28;20027;-78
2021/06/10 05:04:12;;;;;;;12.13;11.13;;;;;;;16.45;72.54;101706.41;5076752;28;20382;-78
2021/06/10 05:06:38;;;;;;;10.38;9.48;;;;;;;16.86;71.38;101722.09;5076971;28;20082;-77
2021/06/10 05:09:03;;;;;;;12.05;10.90;;;;;;;16.75;72.22;101710.94;5078048;28;20028;-78
2021/06/10 05:11:29;;;;;;;11.15;10.18;;;;;;;16.89;72.25;101706.19;5080997;28;20419;-77
2021/06/10 05:13:54;;;;;;;10.73;9.52;;;;;;;16.83;72.58;101706.34;5080749;28;20028;-77
2021/06/10 05:16:19;;;;;;;20.38;11.07;;;;;;;17.01;70.31;101705.00;5080736;28;20030;-78
2021/06/10 05:18:45;;;;;;;11.63;10.48;;;;;;;17.26;69.11;101699.94;5080195;28;20423;-78
2021/06/10 05:21:10;;;;;;;14.77;11.07;;;;;;;17.56;68.11;101702.56;5098710;28;20070;-76
2021/06/10 05:23:38;;;;;;;14.82;11.80;;;;;;;17.81;67.32;101709.78;5063777;28;20069;-77
2021/06/10 05:26:04;;;;;;;12.13;10.90;;;;;;;17.93;66.47;101701.50;5080694;28;20112;-77
2021/06/10 05:28:34;;;;;;;12.90;11.57;;;;;;;18.14;65.29;101707.03;5079961;28;20099;-77
2021/06/10 05:30:59;;;;;;;13.85;11.85;;;;;;;18.31;64.42;101699.44;5080073;28;20452;-77
2021/06/10 05:33:25;;;;;;;11.93;10.82;;;;;;;18.35;64.03;101693.13;5063466;28;20047;-77
2021/06/10 05:35:51;;;;;;;15.40;10.80;;;;;;;18.34;62.47;101696.66;5077037;28;20039;-77
2021/06/10 05:38:16;;;;;;;11.63;10.43;;;;;;;17.99;64.01;101700.44;5077651;28;20020;-78
2021/06/10 05:40:41;;;;;;;10.88;9.60;;;;;;;17.87;65.21;101693.72;5052020;28;20020;-77
2021/06/10 05:43:08;;;;;;;16.00;10.70;;;;;;;17.92;64.89;101698.91;5052332;28;20115;-79
2021/06/10 05:45:33;;;;;;;14.13;9.25;;;;;;;18.38;64.17;101693.00;5060115;28;20028;-78
2021/06/10 05:47:59;;;;;;;15.30;9.80;;;;;;;19.09;61.20;101695.88;5053226;28;20024;-79
2021/06/10 05:50:24;;;;;;;11.98;10.32;;;;;;;19.67;59.82;101697.28;5058941;28;20052;-79
2021/06/10 05:52:49;;;;;;;10.18;8.95;;;;;;;19.65;57.31;101696.47;5062531;28;20123;-79
2021/06/10 05:55:17;;;;;;;7.70;7.05;;;;;;;20.21;55.83;101694.31;5059416;28;20059;-80
2021/06/10 05:57:43;;;;;;;10.23;9.02;;;;;;;21.14;54.13;101693.06;5074552;28;20029;-80
2021/06/10 06:00:08;;;;;;;10.90;8.32;;;;;;;21.70;52.28;101696.72;5066676;28;20024;-79
2021/06/10 06:02:34;;;;;;;10.05;7.80;;;;;;;21.31;52.56;101687.84;5046590;28;20020;-80
2021/06/10 06:04:59;;;;;;;10.80;8.20;;;;;;;22.00;50.03;101682.91;5062364;28;20028;-80
2021/06/10 06:07:25;;;;;;;9.23;7.10;;;;;;;22.17;47.92;101685.59;5049751;28;20040;-80
2021/06/10 06:09:50;;;;;;;7.00;5.78;;;;;;;22.07;48.93;101682.53;5058520;28;20051;-80
2021/06/10 06:12:16;;;;;;;7.28;6.70;;;;;;;20.83;48.54;101683.78;5044516;28;20103;-81
2021/06/10 06:14:44;;;;;;;6.13;5.63;;;;;;;22.55;45.75;101679.28;5063098;28;20420;-81
2021/06/10 06:17:11;;;;;;;7.55;6.85;;;;;;;21.30;49.30;101694.09;5070989;28;20451;-79
2021/06/10 06:19:37;;;;;;;7.45;6.82;;;;;;;22.16;46.57;101683.00;5060502;28;20028;-80
2021/06/10 06:22:04;;;;;;;6.40;5.68;;;;;;;23.03;44.50;101685.69;5054252;28;20466;-80
2021/06/10 06:24:31;;;;;;;7.28;5.68;;;;;;;24.20;41.65;101683.72;5052128;28;20020;-80
2021/06/10 06:26:57;;;;;;;6.78;6.13;;;;;;;24.47;41.37;101683.03;5062286;28;20028;-81
2021/06/10 06:29:22;;;;;;;9.57;6.55;;;;;;;24.82;41.01;101684.59;5075938;28;20020;-80
2021/06/10 06:31:48;;;;;;;6.85;6.15;;;;;;;24.71;39.59;101688.75;5047383;28;20074;-79
2021/06/10 06:34:13;;;;;;;6.07;5.60;;;;;;;22.62;46.61;101697.53;5058697;28;20032;-81
2021/06/10 06:36:38;;;;;;;5.95;5.05;;;;;;;22.11;48.79;101697.41;5048444;28;20028;-82
2021/06/10 06:39:05;;;;;;;5.55;4.53;;;;;;;22.75;46.65;101703.09;5055736;28;20024;-82
2021/06/10 06:41:31;;;;;;;12.00;4.97;;;;;;;24.14;41.48;101703.59;5073791;28;20103;-80
2021/06/10 06:43:56;;;;;;;7.35;4.80;;;;;;;24.78;39.54;101705.25;5060157;28;20058;-81
2021/06/10 06:46:22;;;;;;;8.00;5.35;;;;;;;22.19;45.18;101706.78;5047638;28;20032;-79
2021/06/10 06:48:47;;;;;;;11.18;5.97;;;;;;;20.48;50.39;101716.19;5059163;28;20024;-80
2021/06/10 06:51:16;;;;;;;5.95;5.40;;;;;;;22.19;46.20;101706.78;5055060;28;20423;-83
2021/06/10 06:53:41;;;;;;;6.07;4.47;;;;;;;23.44;42.86;101703.06;5059796;28;20019;-82
2021/06/10 06:56:10;;;;;;;8.85;5.43;;;;;;;23.59;42.33;101710.22;5075507;28;20163;-80
2021/06/10 06:58:37;;;;;;;10.45;5.70;;;;;;;22.33;45.31;101720.25;5055895;28;20043;-81
2021/06/10 07:01:03;;;;;;;8.38;5.28;;;;;;;23.96;42.83;101715.34;5074938;28;20447;-82
2021/06/10 07:03:29;;;;;;;4.68;4.38;;;;;;;24.58;40.80;101715.31;5055412;28;20068;-79
2021/06/10 07:05:54;;;;;;;7.55;6.13;;;;;;;25.76;36.62;101711.66;5074044;28;20023;-80
2021/06/10 07:08:20;;;;;;;8.23;5.88;;;;;;;25.80;36.52;101710.50;5057120;28;20494;-80
2021/06/10 07:10:45;;;;;;;8.52;4.93;;;;;;;26.58;35.15;101721.50;5073511;28;20016;-82
2021/06/10 07:13:11;;;;;;;7.22;5.70;;;;;;;26.86;34.72;101711.59;5057216;28;20400;-79
2021/06/10 07:15:42;;;;;;;11.93;5.68;;;;;;;26.61;35.47;101716.81;5074309;28;20028;-80
2021/06/10 07:18:08;;;;;;;4.57;4.28;;;;;;;25.45;39.27;101720.78;5052463;28;20412;-82
2021/06/10 07:20:33;;;;;;;12.40;5.68;;;;;;;21.94;42.11;101731.94;5059913;28;20027;-81
2021/06/10 07:22:59;;;;;;;12.05;5.20;;;;;;;22.52;41.72;101732.69;5054627;28;20027;-81
2021/06/10 07:25:24;;;;;;;9.95;5.28;;;;;;;22.03;44.35;101730.63;5049052;28;20028;-82
2021/06/10 07:27:50;;;;;;;6.15;5.03;;;;;;;24.10;40.67;101728.75;5056793;28;20302;-81
2021/06/10 07:30:16;;;;;;;8.13;4.63;;;;;;;25.38;39.84;101730.16;5055272;28;20123;-79
2021/06/10 07:32:42;;;;;;;11.68;6.13;;;;;;;24.31;39.14;101731.16;5045778;28;20028;-80
2021/06/10 07:35:08;;;;;;;6.97;5.55;;;;;;;23.37;41.53;101737.19;5051702;28;20432;-82
2021/06/10 07:37:33;;;;;;;4.25;3.85;;;;;;;25.41;38.12;101733.47;5047122;28;20348;-81
2021/06/10 07:39:58;;;;;;;8.75;5.28;;;;;;;27.14;32.97;101737.34;5060400;28;20027;-80
2021/06/10 07:42:24;;;;;;;8.02;4.80;;;;;;;26.43;35.01;101731.44;5061778;28;20028;-83
2021/06/10 07:44:50;;;;;;;4.03;3.67;;;;;;;25.39;36.94;101738.09;5063087;28;20482;-83
2021/06/10 07:47:16;;;;;;;4.97;4.40;;;;;;;26.37;34.97;101735.41;5045799;28;20115;-81
2021/06/10 07:49:41;;;;;;;3.03;2.75;;;;;;;27.33;32.86;101737.75;5056268;28;20115;-82
2021/06/10 07:52:10;;;;;;;5.88;4.85;;;;;;;24.89;36.53;101734.00;5075240;28;20016;-81
2021/06/10 07:54:36;;;;;;;7.13;4.32;;;;;;;26.38;34.34;101737.13;5053456;28;20054;-82
2021/06/10 07:57:02;;;;;;;4.72;3.80;;;;;;;27.21;33.72;101737.78;5051312;28;20021;-81
2021/06/10 07:59:29;;;;;;;6.35;4.93;;;;;;;26.26;34.07;101737.91;5068693;28;20039;-83
2021/06/10 08:01:55;;;;;;;8.02;4.75;;;;;;;26.28;35.12;101730.66;5061601;28;20024;-81
2021/06/10 08:04:21;;;;;;;5.25;4.43;;;;;;;26.38;34.14;101739.81;5073470;28;20030;-82
2021/06/10 08:06:46;;;;;;;5.05;4.55;;;;;;;26.24;32.97;101734.50;5040296;28;20481;-80
2021/06/10 08:09:12;;;;;;;3.65;2.95;;;;;;;28.42;29.52;101746.06;5055899;28;20107;-79
2021/06/10 08:11:38;;;;;;;5.53;4.93;;;;;;;27.68;29.34;101738.91;5069457;28;20027;-81
2021/06/10 08:14:13;;;;;;;7.38;4.43;;;;;;;26.63;32.61;101743.50;5043176;28;20017;-82
2021/06/10 08:16:39;;;;;;;9.18;4.68;;;;;;;28.69;29.17;101739.56;5048916;28;20535;-80
2021/06/10 08:19:05;;;;;;;10.50;5.05;;;;;;;26.75;31.86;101750.75;5071799;28;20107;-79
2021/06/10 08:21:30;;;;;;;7.72;5.13;;;;;;;28.89;29.08;101735.34;5054877;28;20093;-82
2021/06/10 08:24:14;;;;;;;8.23;6.57;;;;;;;24.16;37.59;101738.22;5044018;28;20028;-81
2021/06/10 08:26:41;;;;;;;6.63;5.65;;;;;;;23.63;38.81;101742.94;5045839;28;20114;-82
2021/06/10 08:29:07;;;;;;;5.85;5.32;;;;;;;24.44;38.44;101741.97;5051165;28;20029;-81
2021/06/10 08:31:35;;;;;;;8.45;6.53;;;;;;;25.69;36.48;101739.78;5040505;28;20023;-81
2021/06/10 08:34:01;;;;;;;8.63;7.25;;;;;;;25.01;37.31;101741.28;5069917;28;20081;-79
2021/06/10 08:36:26;;;;;;;7.32;6.22;;;;;;;23.57;40.97;101749.47;5039558;28;20416;-80
2021/06/10 08:38:52;;;;;;;6.40;5.90;;;;;;;23.31;41.96;101748.19;5039230;28;20024;-81
2021/06/10 08:41:20;;;;;;;8.02;5.72;;;;;;;23.92;41.17;101756.47;5046778;28;20028;-81
2021/06/10 08:43:59;;;;;;;7.95;6.22;;;;;;;22.90;43.41;101737.88;5071755;28;20124;-81
2021/06/10 08:46:26;;;;;;;7.47;5.70;;;;;;;22.88;43.05;101745.09;5047437;28;20024;-78
2021/06/10 08:49:02;;;;;;;6.90;6.32;;;;;;;22.88;42.62;101751.28;5050268;28;20028;-80
2021/06/10 08:51:40;;;;;;;7.28;6.03;;;;;;;23.17;41.55;101748.06;5068388;28;20032;-81
2021/06/10 08:54:16;;;;;;;6.95;6.45;;;;;;;22.71;43.25;101740.63;5075208;28;20027;-82
2021/06/10 08:56:51;;;;;;;5.13;4.68;;;;;;;22.98;43.85;101741.00;5048730;28;20331;-78
2021/06/10 08:59:20;;;;;;;6.53;6.05;;;;;;;23.01;44.53;101740.81;5052836;28;20508;-81
2021/06/10 09:01:46;;;;;;;8.93;6.63;;;;;;;23.71;41.56;101740.69;5042998;28;20436;-83
2021/06/10 09:04:13;;;;;;;6.22;5.72;;;;;;;23.32;42.13;101739.25;5056662;28;20442;-81
2021/06/10 09:07:00;;;;;;;8.48;7.75;;;;;;;23.55;42.51;101747.81;5054603;28;20024;-79
2021/06/10 09:09:51;;;;;;;11.68;10.20;;;;;;;22.87;44.41;101738.03;5058778;28;20027;-81
2021/06/10 09:12:40;;;;;;;9.88;8.43;;;;;;;23.08;43.77;101744.91;5053551;28;20022;-80
2021/06/10 09:15:10;;;;;;;9.85;8.93;;;;;;;22.38;45.51;101736.06;5054978;28;20023;-79
2021/06/10 09:17:42;;;;;;;7.75;7.18;;;;;;;23.46;41.28;101730.50;5076625;28;20260;-80
2021/06/10 09:20:22;;;;;;;7.32;6.65;;;;;;;23.00;43.92;101749.78;5059765;28;20091;-82
2021/06/10 09:22:53;;;;;;;7.95;7.22;;;;;;;22.70;44.38;101731.78;5085364;28;20024;-81
2021/06/10 09:25:33;;;;;;;8.98;8.10;;;;;;;23.10;44.36;101727.03;5054326;28;20415;-82
2021/06/10 09:28:08;;;;;;;8.18;6.93;;;;;;;23.90;42.70;101734.34;5055744;28;20415;-80
2021/06/10 09:30:45;;;;;;;8.90;8.20;;;;;;;23.54;41.66;101728.28;5053877;28;20435;-81
2021/06/10 09:33:22;;;;;;;7.97;6.93;;;;;;;23.74;42.01;101726.34;5046439;28;20436;-81
2021/06/10 09:35:48;;;;;;;11.07;8.13;;;;;;;23.70;42.33;101733.63;5040959;28;20040;-79
2021/06/10 09:38:22;;;;;;;8.05;7.32;;;;;;;23.38;44.02;101733.59;5062791;28;20032;-76
2021/06/10 09:40:51;;;;;;;9.55;8.68;;;;;;;23.91;41.86;101736.06;5074354;28;20028;-79
2021/06/10 09:43:17;;;;;;;8.80;7.97;;;;;;;23.71;43.04;101739.81;5062380;28;20539;-80
2021/06/10 09:45:43;;;;;;;9.65;8.43;;;;;;;23.46;42.91;101742.03;5052920;28;20059;-81
2021/06/10 09:48:09;;;;;;;8.95;8.25;;;;;;;23.28;43.21;101733.22;5052216;28;20028;-79
2021/06/10 09:50:43;;;;;;;9.73;8.77;;;;;;;23.52;43.48;101729.28;5069210;28;20020;-80
2021/06/10 09:53:09;;;;;;;;;;;;;;;23.27;42.89;101720.84;5074737;28;20051;-79
2021/06/10 09:55:43;;;;;;;7.68;7.15;;;;;;;23.74;43.40;101723.66;5070508;28;19960;-80
2021/06/10 09:58:11;;;;;;;7.27;6.60;;;;;;;24.06;42.87;101729.88;5059273;28;20350;-83
2021/06/10 10:00:37;;;;;;;7.40;6.80;;;;;;;24.09;42.36;101728.84;5070602;28;20286;-81
2021/06/10 10:03:03;;;;;;;8.38;7.53;;;;;;;23.55;43.55;101724.66;5052178;28;20040;-80
2021/06/10 10:05:28;;;;;;;8.55;7.93;;;;;;;23.96;41.62;101724.19;5067410;28;20359;-80
2021/06/10 10:07:54;;;;;;;6.97;6.38;;;;;;;24.65;41.09;101723.84;5060424;28;20059;-80
2021/06/10 10:10:20;;;;;;;7.78;7.20;;;;;;;24.23;41.81;101723.56;5088399;28;20052;-81
2021/06/10 10:12:47;;;;;;;9.02;7.60;;;;;;;23.78;43.93;101726.06;5069332;28;20021;-81
2021/06/10 10:15:14;;;;;;;9.38;8.57;;;;;;;23.84;43.26;101727.53;5077836;28;20016;-83
2021/06/10 10:17:41;;;;;;;7.85;6.88;;;;;;;23.95;43.46;101708.28;5052903;28;20156;-81
2021/06/10 10:20:08;;;;;;;9.07;8.13;;;;;;;23.66;42.40;101705.41;5055151;28;20048;-81
2021/06/10 10:22:37;;;;;;;8.23;7.63;;;;;;;23.90;42.54;101718.34;5056626;28;20056;-81
2021/06/10 10:25:04;;;;;;;9.30;8.45;;;;;;;23.44;44.20;101716.41;5078611;28;20048;-81
2021/06/10 10:27:30;;;;;;;7.32;6.72;;;;;;;23.76;43.82;101706.63;5054705;28;20335;-80
2021/06/10 10:29:56;;;;;;;8.05;7.38;;;;;;;23.79;43.22;101709.13;5058992;28;20048;-80
2021/06/10 10:32:24;;;;;;;7.75;7.00;;;;;;;23.79;43.94;101710.91;5071672;28;20023;-82
2021/06/10 10:34:49;;;;;;;8.50;7.65;;;;;;;24.03;43.17;101724.72;5077639;23;20043;-75
2021/06/10 10:37:25;;;;;;;6.80;5.93;;;;;;;24.07;43.72;101712.06;5094984;28;20016;-74
2021/06/10 10:39:55;;;;;;;8.02;7.22;;;;;;;24.21;42.23;101722.78;5084142;28;20027;-76
2021/06/10 10:42:26;;;;;;;6.70;6.18;;;;;;;24.50;42.06;101722.03;5069824;28;20016;-77
2021/06/10 10:45:14;;;;;;;6.75;6.25;;;;;;;24.35;43.94;101719.34;5104057;28;20032;-82
2021/06/10 10:47:56;;;;;;;8.13;7.43;;;;;;;25.06;40.79;101714.25;5092520;28;20441;-79
2021/06/10 10:50:37;;;;;;;11.05;9.15;;;;;;;25.56;39.09;101709.41;5083912;28;20024;-77
2021/06/10 10:53:03;;;;;;;8.23;7.57;;;;;;;25.58;39.58;101712.88;5083981;28;20026;-73
2021/06/10 10:55:30;;;;;;;8.65;7.93;;;;;;;25.00;40.23;101707.47;5073097;28;20043;-74
2021/06/10 10:58:10;;;;;;;7.80;7.15;;;;;;;26.22;37.92;101698.91;5089705;28;20036;-74
2021/06/10 11:01:10;;;;;;;7.53;6.95;;;;;;;25.87;38.38;101702.09;5088238;28;20053;-86
2021/06/10 11:03:45;;;;;;;6.90;6.47;;;;;;;26.33;38.55;101701.75;5028510;28;20447;-85
2021/06/10 11:06:25;;;;;;;6.05;5.55;;;;;;;25.71;39.45;101702.22;5083064;28;20122;-84
2021/06/10 11:09:15;;;;;;;6.75;4.22;;;;;;;25.91;39.41;101700.94;5112985;28;20042;-77
2021/06/10 11:11:58;;;;;;;7.60;6.65;;;;;;;26.01;38.10;101696.69;5092996;28;20118;-80
2021/06/10 11:14:37;;;;;;;6.10;5.57;;;;;;;25.91;38.90;101701.78;5072547;28;20024;-84
2021/06/10 11:17:32;;;;;;;8.13;6.57;;;;;;;26.77;36.53;101697.88;5054458;28;20325;-79
2021/06/10 11:20:06;;;;;;;5.85;5.45;;;;;;;27.53;35.40;101692.59;5085656;28;20036;-79
2021/06/10 11:22:39;;;;;;;6.35;5.72;;;;;;;27.26;36.03;101695.41;5079043;28;20027;-74